KLJF

Litchfield Municipal Airport

Litchfield, Minnesota, USA
METAR KLJF 171635Z AUTO 34004KT 10SM CLR 24/18 A3011 RMK AO2
Observed Flight Rules
Aug-17 @ 16:35 UTC (17 minutes ago) Visual Flight Rules
Wind Visibility Clouds
340° at 4 knots 10 miles
  • Clear skies
Temperatures Readings
Current 24°C / 75°F
Dewpoint 18°C / 64°F
Humidity 69%
Altimeter 30.11" Hg
Pressure 1020 hPa
Elevation 348
METAR KLJF 171635Z AUTO 34004KT 10SM CLR 24/18 A3011 RMK AO2
Observed Flight Rules
Aug-17 @ 16:35 UTC
(17 minutes ago)
VFR
Wind Visibility
340° at 4 knots 10 miles
Clouds
  • Clear skies
Temperature Dewpoint
24°C / 75°F 18°C / 64°F
Humidity Altimeter Pressure
69% 30.11" Hg 1020 hPa